createdAt,value
2022-09-15T00:00:43.757Z,2.53
2022-09-15T00:02:46.434Z,1.88
2022-09-15T00:04:48.100Z,2.03
2022-09-15T00:06:49.732Z,2.33
2022-09-15T00:08:51.446Z,2.10
2022-09-15T00:10:58.566Z,2.63
2022-09-15T00:13:00.183Z,2.17
2022-09-15T00:15:01.928Z,4.55
2022-09-15T00:17:03.659Z,2.10
2022-09-15T00:19:06.668Z,4.65
2022-09-15T00:21:10.307Z,3.40
2022-09-15T00:23:13.393Z,2.58
2022-09-15T00:25:15.330Z,2.20
2022-09-15T00:27:17.325Z,2.67
2022-09-15T00:29:19.127Z,3.03
2022-09-15T00:31:22.772Z,3.67
2022-09-15T00:33:24.507Z,2.00
2022-09-15T00:35:26.142Z,2.72
2022-09-15T00:37:27.703Z,4.03
2022-09-15T00:39:29.459Z,2.20
2022-09-15T00:41:31.290Z,3.50
2022-09-15T00:43:51.655Z,5.25
2022-09-15T00:45:53.490Z,3.33
2022-09-15T00:47:55.208Z,4.43
2022-09-15T00:50:02.022Z,2.05
2022-09-15T00:52:23.865Z,5.70
2022-09-15T00:54:39.768Z,2.05
2022-09-15T00:56:43.172Z,2.95
2022-09-15T00:59:00.149Z,3.25
2022-09-15T01:01:03.883Z,2.20
2022-09-15T01:03:05.729Z,3.58
2022-09-15T01:05:10.482Z,4.10
2022-09-15T01:07:14.908Z,2.47
2022-09-15T01:09:24.091Z,3.28
2022-09-15T01:11:25.667Z,2.67
2022-09-15T01:13:29.733Z,3.25
2022-09-15T01:16:00.384Z,3.33
2022-09-15T01:18:08.145Z,2.60
2022-09-15T01:20:18.877Z,4.07
2022-09-15T01:22:23.347Z,4.28
2022-09-15T01:24:45.154Z,5.20
2022-09-15T01:27:24.433Z,6.63
2022-09-15T01:29:44.565Z,4.22
2022-09-15T01:32:21.106Z,4.18
2022-09-15T01:34:22.906Z,5.03
2022-09-15T01:36:52.640Z,4.03
2022-09-15T01:39:15.573Z,4.50
2022-09-15T01:41:31.036Z,3.72
2022-09-15T01:43:35.732Z,4.13
2022-09-15T01:45:39.576Z,5.70
2022-09-15T01:47:41.951Z,4.30
2022-09-15T01:49:49.974Z,3.85
2022-09-15T01:51:53.497Z,3.80
2022-09-15T01:53:56.086Z,4.18
2022-09-15T01:56:07.500Z,4.22
2022-09-15T01:58:09.227Z,4.43
2022-09-15T02:00:12.450Z,4.80
2022-09-15T02:02:29.219Z,6.95
2022-09-15T02:04:39.156Z,4.00
2022-09-15T02:07:07.431Z,3.92
2022-09-15T02:09:44.193Z,4.22
2022-09-15T02:12:03.679Z,5.05
2022-09-15T02:14:17.361Z,4.22
2022-09-15T02:16:22.374Z,4.85
2022-09-15T02:18:45.739Z,4.78
2022-09-15T02:20:52.065Z,3.92
2022-09-15T02:22:57.302Z,6.10
2022-09-15T02:25:14.837Z,8.93
2022-09-15T02:27:24.182Z,4.80
2022-09-15T02:29:27.422Z,8.77
2022-09-15T02:31:29.681Z,4.35
2022-09-15T02:33:37.760Z,4.68
2022-09-15T02:35:40.314Z,8.07
2022-09-15T02:37:42.397Z,5.75
2022-09-15T02:39:48.897Z,8.80
2022-09-15T02:41:51.926Z,4.88
2022-09-15T02:43:53.552Z,5.80
2022-09-15T02:45:55.371Z,5.32
2022-09-15T02:47:57.983Z,4.53
2022-09-15T02:50:00.261Z,5.20
2022-09-15T02:52:02.083Z,5.47
2022-09-15T02:54:03.766Z,6.85
2022-09-15T02:56:06.659Z,5.57
2022-09-15T02:58:08.536Z,4.85
2022-09-15T03:00:14.713Z,5.80
2022-09-15T03:02:18.721Z,4.65
2022-09-15T03:04:20.462Z,5.38
2022-09-15T03:06:22.041Z,5.45
2022-09-15T03:08:23.778Z,6.22
2022-09-15T03:10:25.929Z,5.20
2022-09-15T03:12:27.626Z,8.80
2022-09-15T03:14:29.778Z,5.72
2022-09-15T03:16:32.913Z,4.57
2022-09-15T03:18:34.912Z,5.35
2022-09-15T03:20:36.551Z,5.93
2022-09-15T03:22:38.505Z,5.43
2022-09-15T03:24:42.344Z,5.47
2022-09-15T03:26:44.106Z,5.13
2022-09-15T03:28:45.808Z,7.03
2022-09-15T03:30:48.892Z,7.10
2022-09-15T03:32:50.496Z,5.75
2022-09-15T03:34:56.382Z,5.68
2022-09-15T03:36:59.902Z,5.72
2022-09-15T03:39:01.805Z,6.22
2022-09-15T03:41:07.805Z,7.68
2022-09-15T03:43:10.392Z,5.95
2022-09-15T03:45:12.012Z,6.53
2022-09-15T03:47:13.770Z,5.30
2022-09-15T03:49:15.461Z,5.80
2022-09-15T03:51:17.080Z,7.93
2022-09-15T03:53:21.861Z,5.80
2022-09-15T03:55:23.519Z,4.88
2022-09-15T03:57:25.109Z,5.13
2022-09-15T03:59:26.807Z,5.60
2022-09-15T04:01:29.718Z,7.07
2022-09-15T04:03:31.740Z,4.70
2022-09-15T04:05:34.005Z,4.03
2022-09-15T04:07:35.654Z,5.05
2022-09-15T04:09:37.442Z,5.97
2022-09-15T04:11:39.669Z,4.68
2022-09-15T04:13:42.102Z,6.07
2022-09-15T04:15:44.834Z,8.90
2022-09-15T04:17:47.162Z,5.00
2022-09-15T04:19:48.806Z,7.22
2022-09-15T04:21:50.459Z,5.07
2022-09-15T04:23:52.439Z,5.40
2022-09-15T04:26:17.347Z,5.40
2022-09-15T04:28:19.063Z,5.78
2022-09-15T04:30:20.862Z,5.90
2022-09-15T04:32:22.524Z,4.63
2022-09-15T04:34:24.754Z,5.05
2022-09-15T04:36:28.375Z,4.07
2022-09-15T04:38:30.330Z,3.28
2022-09-15T04:40:32.279Z,2.42
2022-09-15T04:42:33.950Z,1.88
2022-09-15T04:44:35.635Z,3.75
2022-09-15T04:46:40.133Z,2.65
2022-09-15T04:48:42.359Z,2.65
2022-09-15T04:50:44.207Z,5.53
2022-09-15T04:52:45.913Z,2.50
2022-09-15T04:54:47.618Z,2.95
2022-09-15T04:56:49.490Z,3.50
2022-09-15T04:59:00.927Z,2.60
2022-09-15T05:01:09.697Z,9.02
2022-09-15T05:03:12.922Z,6.32
2022-09-15T05:05:14.628Z,3.78
2022-09-15T05:07:16.725Z,3.67
2022-09-15T05:09:21.565Z,3.75
2022-09-15T05:11:24.112Z,2.83
2022-09-15T05:13:25.772Z,2.35
2022-09-15T05:15:27.459Z,4.05
2022-09-15T05:17:35.826Z,3.65
2022-09-15T05:19:37.518Z,3.45
2022-09-15T05:21:39.171Z,3.65
2022-09-15T05:23:41.441Z,4.30
2022-09-15T05:25:43.093Z,4.40
2022-09-15T05:27:44.734Z,5.25
2022-09-15T05:29:46.320Z,4.88
2022-09-15T05:31:48.017Z,5.93
2022-09-15T05:33:50.733Z,6.03
2022-09-15T05:35:56.928Z,7.57
2022-09-15T05:37:58.837Z,7.22
2022-09-15T05:40:02.406Z,9.23
2022-09-15T05:42:06.158Z,10.73
2022-09-15T05:44:07.812Z,11.02
2022-09-15T05:46:10.322Z,11.02
2022-09-15T05:48:13.500Z,10.57
2022-09-15T05:50:15.299Z,11.90
2022-09-15T05:52:16.917Z,13.13
2022-09-15T05:54:18.747Z,11.98
2022-09-15T05:56:20.717Z,13.80
2022-09-15T05:58:22.461Z,13.93
2022-09-15T06:00:24.761Z,12.85
2022-09-15T06:02:26.380Z,13.57
2022-09-15T06:04:28.341Z,13.40
2022-09-15T06:06:31.708Z,12.50
2022-09-15T06:08:36.045Z,12.63
2022-09-15T06:10:37.824Z,13.32
2022-09-15T06:12:39.398Z,14.05
2022-09-15T06:14:43.428Z,12.23
2022-09-15T06:16:45.073Z,13.93
2022-09-15T06:18:48.236Z,15.50
2022-09-15T06:20:49.823Z,13.07
2022-09-15T06:22:53.164Z,13.73
2022-09-15T06:24:54.783Z,13.52
2022-09-15T06:26:56.414Z,13.45
2022-09-15T06:29:00.853Z,14.55
2022-09-15T06:31:02.584Z,13.32
2022-09-15T06:33:04.260Z,16.38
2022-09-15T06:35:07.208Z,12.63
2022-09-15T06:37:09.405Z,15.80
2022-09-15T06:39:11.202Z,15.32
2022-09-15T06:41:13.233Z,14.27
2022-09-15T06:43:14.958Z,15.52
2022-09-15T06:45:17.109Z,15.55
2022-09-15T06:47:19.833Z,15.75
2022-09-15T06:49:22.011Z,15.75
2022-09-15T06:51:28.332Z,16.80
2022-09-15T06:53:34.958Z,14.85
2022-09-15T06:55:36.651Z,16.48
2022-09-15T06:57:38.412Z,16.10
2022-09-15T06:59:40.363Z,16.08
2022-09-15T07:01:43.129Z,15.40
2022-09-15T07:03:45.020Z,13.73
2022-09-15T07:05:53.554Z,16.10
2022-09-15T07:07:56.078Z,18.00
2022-09-15T07:09:58.004Z,15.07
2022-09-15T07:11:59.625Z,18.08
2022-09-15T07:14:01.514Z,15.23
2022-09-15T07:16:04.870Z,15.27
2022-09-15T07:18:06.692Z,16.02
2022-09-15T07:20:09.415Z,17.58
2022-09-15T07:22:12.058Z,16.85
2022-09-15T07:24:14.660Z,18.15
2022-09-15T07:26:21.980Z,18.95
2022-09-15T07:28:23.875Z,17.13
2022-09-15T07:30:25.554Z,20.77
2022-09-15T07:32:27.221Z,19.38
2022-09-15T07:34:28.858Z,21.25
2022-09-15T07:36:30.895Z,19.08
2022-09-15T07:38:33.286Z,18.70
2022-09-15T07:40:35.022Z,18.48
2022-09-15T07:42:43.356Z,21.52
2022-09-15T07:44:45.136Z,18.63
2022-09-15T07:46:46.679Z,19.25
2022-09-15T07:48:50.264Z,19.08
2022-09-15T07:50:52.153Z,22.63
2022-09-15T07:52:56.910Z,20.23
2022-09-15T07:54:58.559Z,19.88
2022-09-15T07:57:00.176Z,23.55
2022-09-15T07:59:01.789Z,19.40
2022-09-15T08:01:05.317Z,24.30
2022-09-15T08:03:07.025Z,19.67
2022-09-15T08:05:08.740Z,18.02
2022-09-15T08:07:11.285Z,20.20
2022-09-15T08:09:14.985Z,17.65
2022-09-15T08:11:19.244Z,16.67
2022-09-15T08:13:21.049Z,18.90
2022-09-15T08:15:22.797Z,18.65
2022-09-15T08:17:24.561Z,20.02
2022-09-15T08:19:26.149Z,17.23
2022-09-15T08:21:28.362Z,16.65
2022-09-15T08:23:30.034Z,16.52
2022-09-15T08:25:31.654Z,16.60
2022-09-15T08:27:33.302Z,17.52
2022-09-15T08:29:34.915Z,18.20
2022-09-15T08:31:36.519Z,15.70
2022-09-15T08:33:43.199Z,17.45
2022-09-15T08:35:47.021Z,14.48
2022-09-15T08:37:48.740Z,15.43
2022-09-15T08:39:50.515Z,14.18
2022-09-15T08:41:53.682Z,12.98
2022-09-15T08:44:25.773Z,18.00
2022-09-15T08:46:37.775Z,15.15
2022-09-15T08:48:44.237Z,14.48
2022-09-15T08:50:49.103Z,13.85
2022-09-15T08:52:53.636Z,15.00
2022-09-15T08:54:58.391Z,12.55
2022-09-15T08:57:00.783Z,12.15
2022-09-15T08:59:02.594Z,13.05
2022-09-15T09:01:22.530Z,12.75
2022-09-15T09:03:48.125Z,13.32
2022-09-15T09:06:18.588Z,12.40
2022-09-15T09:08:41.530Z,13.93
2022-09-15T09:10:52.849Z,12.38
2022-09-15T09:12:54.521Z,12.77
2022-09-15T09:15:17.512Z,12.98
2022-09-15T09:17:30.966Z,14.73
2022-09-15T09:19:49.402Z,14.10
2022-09-15T09:21:56.664Z,13.73
2022-09-15T09:24:19.410Z,13.70
2022-09-15T09:26:21.125Z,15.20
2022-09-15T09:28:28.473Z,14.90
2022-09-15T09:30:32.633Z,14.52
2022-09-15T09:32:41.010Z,14.30
2022-09-15T09:35:02.248Z,15.27
2022-09-15T09:37:15.490Z,14.18
2022-09-15T09:39:17.209Z,20.45
2022-09-15T09:41:27.396Z,15.27
2022-09-15T09:43:30.145Z,14.48
2022-09-15T09:45:31.821Z,15.02
2022-09-15T09:47:35.004Z,14.52
2022-09-15T09:49:44.405Z,15.57
2022-09-15T09:51:52.197Z,14.70
2022-09-15T09:53:54.257Z,16.33
2022-09-15T09:56:14.720Z,18.42
2022-09-15T09:58:21.781Z,15.55
2022-09-15T10:00:37.760Z,15.05
2022-09-15T10:02:46.781Z,15.25
2022-09-15T10:04:51.063Z,15.18
2022-09-15T10:06:55.960Z,17.70
2022-09-15T10:08:58.662Z,16.65
2022-09-15T10:11:06.695Z,14.80
2022-09-15T10:13:10.933Z,14.50
2022-09-15T10:15:31.052Z,14.13
2022-09-15T10:17:46.096Z,13.75
2022-09-15T10:19:55.493Z,16.65
2022-09-15T10:21:58.178Z,13.93
2022-09-15T10:24:30.476Z,12.40
2022-09-15T10:26:34.688Z,12.48
2022-09-15T10:28:37.625Z,12.52
2022-09-15T10:30:41.191Z,11.27
2022-09-15T10:32:43.368Z,12.60
2022-09-15T10:34:45.031Z,11.00
2022-09-15T10:36:46.731Z,11.18
2022-09-15T10:39:23.911Z,10.60
2022-09-15T10:41:32.238Z,14.15
2022-09-15T10:43:33.829Z,10.98
2022-09-15T10:45:40.232Z,8.85
2022-09-15T10:47:48.294Z,10.68
2022-09-15T10:50:28.972Z,7.40
2022-09-15T10:52:35.371Z,6.50
2022-09-15T10:55:00.220Z,7.38
2022-09-15T10:57:11.865Z,6.25
2022-09-15T10:59:27.119Z,5.68
2022-09-15T11:01:28.866Z,5.78
2022-09-15T11:03:53.777Z,6.50
2022-09-15T11:05:55.422Z,6.32
2022-09-15T11:08:32.039Z,5.78
2022-09-15T11:10:55.089Z,5.60
2022-09-15T11:13:15.557Z,5.93
2022-09-15T11:15:23.031Z,5.63
2022-09-15T11:17:49.741Z,6.40
2022-09-15T11:20:09.300Z,5.18
2022-09-15T11:22:18.706Z,5.15
2022-09-15T11:24:22.868Z,4.60
2022-09-15T11:26:33.868Z,4.72
2022-09-15T11:28:55.185Z,4.80
2022-09-15T11:31:02.485Z,6.20
2022-09-15T11:33:21.613Z,4.13
2022-09-15T11:35:53.765Z,4.53
2022-09-15T11:37:59.629Z,4.57
2022-09-15T11:40:13.172Z,4.78
2022-09-15T11:42:19.369Z,5.97
2022-09-15T11:44:34.548Z,4.53
2022-09-15T11:46:51.819Z,3.97
2022-09-15T11:49:17.517Z,7.05
2022-09-15T11:51:21.666Z,4.45
2022-09-15T11:54:08.282Z,5.45
2022-09-15T11:56:16.207Z,3.15
2022-09-15T11:58:29.674Z,4.80
2022-09-15T12:00:31.749Z,3.35
2022-09-15T12:02:47.742Z,4.18
2022-09-15T12:05:13.503Z,2.85
2022-09-15T12:07:23.885Z,2.90
2022-09-15T12:09:25.555Z,2.30
2022-09-15T12:11:30.447Z,4.13
2022-09-15T12:13:32.364Z,2.42
2022-09-15T12:15:34.112Z,1.90
2022-09-15T12:17:51.351Z,2.05
2022-09-15T12:20:01.573Z,4.38
2022-09-15T12:22:16.261Z,3.88
2022-09-15T12:24:20.972Z,5.72
2022-09-15T12:26:24.256Z,1.83
2022-09-15T12:28:33.546Z,3.25
2022-09-15T12:30:40.320Z,3.38
2022-09-15T12:32:42.328Z,6.30
2022-09-15T12:35:20.511Z,1.73
2022-09-15T12:37:23.346Z,3.28
2022-09-15T12:39:44.878Z,2.47
2022-09-15T12:42:01.535Z,2.38
2022-09-15T12:44:12.422Z,4.43
2022-09-15T12:46:17.440Z,3.30
2022-09-15T12:48:21.167Z,3.67
2022-09-15T12:50:30.743Z,2.47
2022-09-15T12:52:42.656Z,3.08
2022-09-15T12:54:45.704Z,8.85
2022-09-15T12:56:51.690Z,3.10
2022-09-15T12:58:54.243Z,1.95
2022-09-15T13:01:19.489Z,2.25
2022-09-15T13:03:29.188Z,3.78
2022-09-15T13:05:43.033Z,2.90
2022-09-15T13:07:57.563Z,4.35
2022-09-15T13:10:00.541Z,2.22
2022-09-15T13:12:03.324Z,2.45
2022-09-15T13:14:07.959Z,1.92
2022-09-15T13:16:16.750Z,3.08
2022-09-15T13:18:19.159Z,3.85
2022-09-15T13:20:25.974Z,3.30
2022-09-15T13:22:34.264Z,3.75
2022-09-15T13:24:47.905Z,2.50
2022-09-15T13:26:52.866Z,1.90
2022-09-15T13:28:57.690Z,3.30
2022-09-15T13:31:05.516Z,2.85
2022-09-15T13:35:00.299Z,3.45
2022-09-15T13:36:02.832Z,3.70
2022-09-15T13:38:23.957Z,1.90
2022-09-15T13:40:56.125Z,3.00
2022-09-15T13:43:17.722Z,2.88
2022-09-15T13:45:42.663Z,1.70
2022-09-15T13:47:52.849Z,2.90
2022-09-15T13:50:13.403Z,2.10
2022-09-15T13:52:22.530Z,1.70
2022-09-15T13:54:24.425Z,2.38
2022-09-15T13:56:32.638Z,2.10
2022-09-15T14:01:03.746Z,1.88
2022-09-15T14:03:16.296Z,1.65
2022-09-15T14:05:18.591Z,3.65
2022-09-15T14:07:23.528Z,1.20
2022-09-15T14:09:40.103Z,2.75
2022-09-15T14:11:42.913Z,2.85
2022-09-15T14:13:47.862Z,2.05
2022-09-15T14:16:11.947Z,2.53
2022-09-15T14:18:20.030Z,3.75
2022-09-15T14:20:31.230Z,2.72
2022-09-15T14:22:34.780Z,1.33
2022-09-15T14:24:40.323Z,2.60
2022-09-15T14:26:41.934Z,1.60
2022-09-15T14:28:58.804Z,2.80
2022-09-15T14:31:01.576Z,1.63
2022-09-15T14:33:04.231Z,1.70
2022-09-15T14:35:08.270Z,1.48
2022-09-15T14:37:15.987Z,2.05
2022-09-15T14:39:18.845Z,2.63
2022-09-15T14:41:20.479Z,4.63
2022-09-15T14:43:35.675Z,1.40
2022-09-15T14:48:06.666Z,2.28
2022-09-15T14:50:15.828Z,3.97
2022-09-15T14:52:27.251Z,1.58
2022-09-15T14:54:32.246Z,1.52
2022-09-15T14:56:36.482Z,3.60
2022-09-15T14:58:45.717Z,2.65
2022-09-15T15:01:05.531Z,2.72
2022-09-15T15:03:40.158Z,6.05
2022-09-15T15:05:48.451Z,4.45
2022-09-15T15:07:50.840Z,4.13
2022-09-15T15:10:07.305Z,1.77
2022-09-15T15:12:19.347Z,2.63
2022-09-15T15:16:27.211Z,1.88
2022-09-15T15:18:39.185Z,2.35
2022-09-15T15:20:49.100Z,2.03
2022-09-15T15:23:18.984Z,2.58
2022-09-15T15:25:32.293Z,2.08
2022-09-15T15:27:34.046Z,4.03
2022-09-15T15:29:47.191Z,2.83
2022-09-15T15:31:49.294Z,3.45
2022-09-15T15:33:55.944Z,1.65
2022-09-15T15:36:07.758Z,2.58
2022-09-15T15:38:15.776Z,3.08
2022-09-15T15:40:20.095Z,2.88
2022-09-15T15:42:23.181Z,3.38
2022-09-15T15:44:27.173Z,5.22
2022-09-15T15:46:49.855Z,2.08
2022-09-15T15:48:51.653Z,2.20
2022-09-15T15:50:53.784Z,3.15
2022-09-15T15:52:55.885Z,4.03
2022-09-15T15:54:57.806Z,2.95
2022-09-15T15:57:26.975Z,2.15
2022-09-15T15:59:28.612Z,5.55
2022-09-15T16:01:31.185Z,1.75
2022-09-15T16:03:32.842Z,3.63
2022-09-15T16:05:34.632Z,3.20
2022-09-15T16:07:37.424Z,2.63
2022-09-15T16:09:39.116Z,2.05
2022-09-15T16:11:42.640Z,5.78
2022-09-15T16:13:44.448Z,2.42
2022-09-15T16:15:46.394Z,3.63
2022-09-15T16:17:49.032Z,3.33
2022-09-15T16:19:50.953Z,7.28
2022-09-15T16:21:52.679Z,3.40
2022-09-15T16:23:54.387Z,1.92
2022-09-15T16:26:00.696Z,1.98
2022-09-15T16:28:03.522Z,2.55
2022-09-15T16:30:08.316Z,1.67
2022-09-15T16:32:19.580Z,3.28
2022-09-15T16:34:21.283Z,2.40
2022-09-15T16:36:22.977Z,6.47
2022-09-15T16:38:25.937Z,9.73
2022-09-15T16:40:27.625Z,2.95
2022-09-15T16:42:29.276Z,2.92
2022-09-15T16:44:31.237Z,1.65
2022-09-15T16:46:32.910Z,5.30
2022-09-15T16:48:34.627Z,2.17
2022-09-15T16:50:39.888Z,4.22
2022-09-15T16:52:44.359Z,3.88
2022-09-15T16:54:45.964Z,2.63
2022-09-15T16:56:47.623Z,1.80
2022-09-15T16:58:49.476Z,3.25
2022-09-15T17:00:52.939Z,7.75
2022-09-15T17:02:54.764Z,2.55
2022-09-15T17:04:56.412Z,2.38
2022-09-15T17:06:58.317Z,7.63
2022-09-15T17:08:59.978Z,4.38
2022-09-15T17:11:03.862Z,4.93
2022-09-15T17:13:05.927Z,4.38
2022-09-15T17:15:18.613Z,2.78
2022-09-15T17:17:24.268Z,2.78
2022-09-15T17:19:25.903Z,2.75
2022-09-15T17:21:27.547Z,2.17
2022-09-15T17:23:37.941Z,2.42
2022-09-15T17:25:42.558Z,6.90
2022-09-15T17:27:44.443Z,4.55
2022-09-15T17:29:46.341Z,2.35
2022-09-15T17:31:48.009Z,3.50
2022-09-15T17:33:50.414Z,3.17
2022-09-15T17:35:52.341Z,2.95
2022-09-15T17:37:53.961Z,6.60
2022-09-15T17:39:58.965Z,4.43
2022-09-15T17:44:02.530Z,2.30
2022-09-15T17:46:04.244Z,5.60
2022-09-15T17:48:06.303Z,2.35
2022-09-15T17:50:08.314Z,2.25
2022-09-15T17:52:11.083Z,3.92
2022-09-15T17:54:13.356Z,2.78
2022-09-15T17:56:15.187Z,3.03
2022-09-15T17:58:17.599Z,3.28
2022-09-15T18:00:20.738Z,4.90
2022-09-15T18:02:22.411Z,2.45
2022-09-15T18:04:24.114Z,2.45
2022-09-15T18:06:25.795Z,3.03
2022-09-15T18:08:27.732Z,3.78
2022-09-15T18:10:30.788Z,3.72
2022-09-15T18:12:32.480Z,2.85
2022-09-15T18:14:34.091Z,5.25
2022-09-15T18:16:35.901Z,3.95
2022-09-15T18:18:38.972Z,5.10
2022-09-15T18:20:40.739Z,4.78
2022-09-15T18:22:42.680Z,3.92
2022-09-15T18:24:44.302Z,5.40
2022-09-15T18:26:46.148Z,4.60
2022-09-15T18:28:47.791Z,6.55
2022-09-15T18:30:50.365Z,4.03
2022-09-15T18:32:52.410Z,5.53
2022-09-15T18:34:54.041Z,3.13
2022-09-15T18:36:55.674Z,6.28
2022-09-15T18:38:57.800Z,3.40
2022-09-15T18:41:00.247Z,3.35
2022-09-15T18:43:01.923Z,6.13
2022-09-15T18:45:05.083Z,3.60
2022-09-15T18:47:09.779Z,5.40
2022-09-15T18:49:11.427Z,8.25
2022-09-15T18:51:19.695Z,5.50
2022-09-15T18:53:26.371Z,3.05
2022-09-15T18:55:28.063Z,4.95
2022-09-15T18:57:29.652Z,2.67
2022-09-15T18:59:31.287Z,7.60
2022-09-15T19:01:34.624Z,2.95
2022-09-15T19:03:37.877Z,3.08
2022-09-15T19:05:40.089Z,4.50
2022-09-15T19:07:43.427Z,4.53
2022-09-15T19:09:45.058Z,4.85
2022-09-15T19:11:49.397Z,2.60
2022-09-15T19:13:53.055Z,5.38
2022-09-15T19:15:55.815Z,2.40
2022-09-15T19:17:57.420Z,3.80
2022-09-15T19:20:00.349Z,4.50
2022-09-15T19:22:02.114Z,4.72
2022-09-15T19:24:03.894Z,3.40
2022-09-15T19:26:08.095Z,9.52
2022-09-15T19:28:10.176Z,2.95
2022-09-15T19:30:12.275Z,5.90
2022-09-15T19:32:18.107Z,3.58
2022-09-15T19:34:19.798Z,4.60
2022-09-15T19:36:28.269Z,4.53
2022-09-15T19:38:30.374Z,2.83
2022-09-15T19:40:32.071Z,7.00
2022-09-15T19:42:33.849Z,3.13
2022-09-15T19:44:35.584Z,6.10
2022-09-15T19:46:37.319Z,7.95
2022-09-15T19:48:41.334Z,5.70
2022-09-15T19:50:46.064Z,4.22
2022-09-15T19:52:47.651Z,4.30
2022-09-15T19:54:49.323Z,8.40
2022-09-15T19:56:51.635Z,4.05
2022-09-15T19:58:55.928Z,3.17
2022-09-15T20:00:58.486Z,3.50
2022-09-15T20:03:00.281Z,3.17
2022-09-15T20:05:01.927Z,7.60
2022-09-15T20:07:03.834Z,7.47
2022-09-15T20:09:06.212Z,5.80
2022-09-15T20:11:09.006Z,7.47
2022-09-15T20:13:10.819Z,9.57
2022-09-15T20:15:12.490Z,4.97
2022-09-15T20:17:14.410Z,4.38
2022-09-15T20:19:16.326Z,9.77
2022-09-15T20:21:38.840Z,3.92
2022-09-15T20:23:45.456Z,20.42
2022-09-15T20:26:02.820Z,7.05
2022-09-15T20:28:04.681Z,5.28
2022-09-15T20:30:06.966Z,5.20
2022-09-15T20:32:08.992Z,9.43
2022-09-15T20:34:10.627Z,3.47
2022-09-15T20:36:26.190Z,3.78
2022-09-15T20:38:28.478Z,4.38
2022-09-15T20:40:30.426Z,3.13
2022-09-15T20:42:32.094Z,4.00
2022-09-15T20:44:33.686Z,4.95
2022-09-15T20:46:35.442Z,4.05
2022-09-15T20:48:39.246Z,4.45
2022-09-15T20:50:40.867Z,4.13
2022-09-15T20:52:42.578Z,3.75
2022-09-15T20:54:44.229Z,3.47
2022-09-15T20:56:45.846Z,3.15
2022-09-15T20:58:48.373Z,2.03
2022-09-15T21:00:52.105Z,7.25
2022-09-15T21:02:53.792Z,3.15
2022-09-15T21:04:55.436Z,3.05
2022-09-15T21:06:57.052Z,5.40
2022-09-15T21:08:58.728Z,7.47
2022-09-15T21:11:01.334Z,3.40
2022-09-15T21:13:03.393Z,2.67
2022-09-15T21:15:05.889Z,2.13
2022-09-15T21:17:08.221Z,7.20
2022-09-15T21:19:12.271Z,2.42
2022-09-15T21:21:17.076Z,3.03
2022-09-15T21:23:19.444Z,4.45
2022-09-15T21:25:22.073Z,7.25
2022-09-15T21:27:26.912Z,4.50
2022-09-15T21:29:29.048Z,4.28
2022-09-15T21:31:33.585Z,3.38
2022-09-15T21:33:36.465Z,2.72
2022-09-15T21:35:38.129Z,3.80
2022-09-15T21:37:39.886Z,14.07
2022-09-15T21:39:41.511Z,2.22
2022-09-15T21:41:43.115Z,7.68
2022-09-15T21:43:46.740Z,6.03
2022-09-15T21:45:48.454Z,2.35
2022-09-15T21:47:50.140Z,2.70
2022-09-15T21:49:51.857Z,3.33
2022-09-15T21:51:53.509Z,5.15
2022-09-15T21:53:57.009Z,2.50
2022-09-15T21:56:06.328Z,3.65
2022-09-15T21:58:08.006Z,5.95
2022-09-15T22:00:10.280Z,3.85
2022-09-15T22:02:12.003Z,4.57
2022-09-15T22:04:13.765Z,2.95
2022-09-15T22:06:16.880Z,2.72
2022-09-15T22:08:18.544Z,3.10
2022-09-15T22:10:20.380Z,5.13
2022-09-15T22:12:22.014Z,4.90
2022-09-15T22:14:23.696Z,9.90
2022-09-15T22:16:25.896Z,4.85
2022-09-15T22:18:27.605Z,2.20
2022-09-15T22:20:29.589Z,2.45
2022-09-15T22:22:31.239Z,3.40
2022-09-15T22:24:32.858Z,2.72
2022-09-15T22:26:37.299Z,4.30
2022-09-15T22:28:39.228Z,3.95
2022-09-15T22:30:41.096Z,2.75
2022-09-15T22:32:42.804Z,5.40
2022-09-15T22:34:45.728Z,3.05
2022-09-15T22:36:47.581Z,5.63
2022-09-15T22:38:49.478Z,5.25
2022-09-15T22:40:51.499Z,3.15
2022-09-15T22:42:53.195Z,5.18
2022-09-15T22:44:55.088Z,2.75
2022-09-15T22:46:56.856Z,2.15
2022-09-15T22:48:58.687Z,2.22
2022-09-15T22:51:00.664Z,2.97
2022-09-15T22:53:02.334Z,5.07
2022-09-15T22:55:04.304Z,3.42
2022-09-15T22:57:05.954Z,5.95
2022-09-15T22:59:07.549Z,3.08
2022-09-15T23:01:20.637Z,3.70
2022-09-15T23:03:22.383Z,2.65
2022-09-15T23:05:24.134Z,2.65
2022-09-15T23:07:25.789Z,5.53
2022-09-15T23:09:27.437Z,4.85
2022-09-15T23:11:30.068Z,3.75
2022-09-15T23:13:31.933Z,3.20
2022-09-15T23:15:34.403Z,5.18
2022-09-15T23:17:36.106Z,2.13
2022-09-15T23:19:37.811Z,3.25
2022-09-15T23:21:39.505Z,2.72
2022-09-15T23:23:43.327Z,5.03
2022-09-15T23:25:44.995Z,3.13
2022-09-15T23:27:46.623Z,4.38
2022-09-15T23:29:48.249Z,3.47
2022-09-15T23:31:49.987Z,3.70
2022-09-15T23:33:51.711Z,3.78
2022-09-15T23:35:53.683Z,3.65
2022-09-15T23:37:55.277Z,1.48
2022-09-15T23:39:57.340Z,2.30
2022-09-15T23:41:59.000Z,3.95
2022-09-15T23:44:00.687Z,2.03
2022-09-15T23:46:03.247Z,2.42
2022-09-15T23:48:06.685Z,8.27
2022-09-15T23:50:08.899Z,3.70
2022-09-15T23:52:10.542Z,3.08
2022-09-15T23:54:12.200Z,3.70
2022-09-15T23:56:13.950Z,2.88
2022-09-15T23:58:15.705Z,3.65
